Time;durP1;ratioP1;P1;durP2;ratioP2;P2;SDS_P1;SDS_P2;PMS_P1;PMS_P2;Temp;Humidity;BMP_temperature;BMP_pressure;BME280_temperature;BME280_humidity;BME280_pressure;Samples;Min_cycle;Max_cycle;Signal;HPM_P1;HPM_P2
2021/12/03 00:01:39;;;;;;;14.68;9.48;;;;;;;;;;5112050;27;43635;-83
2021/12/03 00:04:06;;;;;;;12.88;8.82;;;;;;;;;;5105778;27;44815;-83
2021/12/03 00:06:35;;;;;;;19.35;11.20;;;;;;;;;;5090710;28;43903;-83
2021/12/03 00:09:03;;;;;;;18.08;11.80;;;;;;;;;;5091631;28;45011;-84
2021/12/03 00:11:30;;;;;;;20.33;9.75;;;;;;;;;;5090606;28;42797;-83
2021/12/03 00:13:57;;;;;;;18.73;11.05;;;;;;;;;;5091116;28;44878;-83
2021/12/03 00:16:23;;;;;;;24.35;12.27;;;;;;;;;;5091174;28;42930;-84
2021/12/03 00:18:50;;;;;;;23.70;13.13;;;;;;;;;;5090231;28;43009;-84
2021/12/03 00:21:17;;;;;;;14.02;9.73;;;;;;;;;;5091179;28;44843;-84
2021/12/03 00:23:44;;;;;;;17.50;10.10;;;;;;;;;;5091292;28;43777;-84
2021/12/03 00:26:11;;;;;;;14.23;9.43;;;;;;;;;;5090196;28;43713;-84
2021/12/03 00:28:38;;;;;;;19.88;10.73;;;;;;;;;;5090773;28;42934;-84
2021/12/03 00:31:05;;;;;;;22.42;12.63;;;;;;;;;;5090696;28;43745;-83
2021/12/03 00:33:32;;;;;;;22.05;11.07;;;;;;;;;;5090158;28;44983;-83
2021/12/03 00:36:03;;;;;;;26.55;14.75;;;;;;;;;;5091183;28;43759;-83
2021/12/03 00:38:35;;;;;;;12.05;9.80;;;;;;;;;;5090367;28;44934;-83
2021/12/03 00:41:04;;;;;;;17.45;10.38;;;;;;;;;;5090298;28;44893;-83
2021/12/03 00:43:31;;;;;;;18.10;9.60;;;;;;;;;;5108454;28;42691;-84
2021/12/03 00:46:05;;;;;;;23.85;13.13;;;;;;;;;;5110129;27;43333;-83
2021/12/03 00:48:32;;;;;;;22.48;13.93;;;;;;;;;;5110823;27;42684;-84
2021/12/03 00:50:59;;;;;;;21.40;12.70;;;;;;;;;;5111003;27;42660;-84
2021/12/03 00:53:26;;;;;;;16.73;10.95;;;;;;;;;;5110497;27;44992;-83
2021/12/03 00:55:53;;;;;;;20.25;11.98;;;;;;;;;;5110522;27;43692;-84
2021/12/03 00:58:20;;;;;;;21.15;12.25;;;;;;;;;;5110534;27;45174;-83
2021/12/03 01:00:47;;;;;;;17.43;9.53;;;;;;;;;;5109857;27;44914;-83
2021/12/03 01:03:15;;;;;;;17.27;10.52;;;;;;;;;;5110617;27;43684;-83
2021/12/03 01:05:41;;;;;;;16.65;8.80;;;;;;;;;;5091529;27;42879;-84
2021/12/03 01:08:09;;;;;;;23.30;9.97;;;;;;;;;;5090868;28;20056;-84
2021/12/03 01:10:36;;;;;;;19.45;12.57;;;;;;;;;;5090103;28;44812;-84
2021/12/03 01:13:03;;;;;;;23.35;12.35;;;;;;;;;;5090388;28;42890;-84
2021/12/03 01:15:31;;;;;;;24.33;12.35;;;;;;;;;;5089808;28;43449;-84
2021/12/03 01:17:58;;;;;;;31.95;13.73;;;;;;;;;;5089904;28;42980;-84
2021/12/03 01:20:25;;;;;;;38.38;16.08;;;;;;;;;;5089177;28;43927;-84
2021/12/03 01:22:53;;;;;;;25.67;12.15;;;;;;;;;;5089586;28;46110;-84
2021/12/03 01:25:20;;;;;;;23.20;12.27;;;;;;;;;;5090295;28;44958;-84
2021/12/03 01:27:48;;;;;;;20.63;11.10;;;;;;;;;;5090079;28;43881;-84
2021/12/03 01:30:16;;;;;;;27.40;12.35;;;;;;;;;;5089349;28;44625;-85
2021/12/03 01:32:43;;;;;;;32.30;16.77;;;;;;;;;;5090087;28;44981;-85
2021/12/03 01:35:10;;;;;;;23.20;12.23;;;;;;;;;;5089847;28;44766;-85
2021/12/03 01:37:37;;;;;;;25.00;11.60;;;;;;;;;;5089739;28;43911;-84
2021/12/03 01:40:05;;;;;;;19.50;11.52;;;;;;;;;;5090012;28;44015;-85
2021/12/03 01:42:32;;;;;;;23.10;12.55;;;;;;;;;;5098701;28;44607;-85
2021/12/03 01:44:59;;;;;;;27.25;14.25;;;;;;;;;;5109608;27;45059;-85
2021/12/03 01:47:26;;;;;;;28.20;13.02;;;;;;;;;;5110119;27;43931;-85
2021/12/03 01:49:52;;;;;;;31.23;14.35;;;;;;;;;;5109300;27;44083;-85
2021/12/03 01:52:19;;;;;;;26.77;13.25;;;;;;;;;;5110154;27;45014;-84
2021/12/03 01:54:45;;;;;;;31.90;14.25;;;;;;;;;;5110343;28;44940;-84
2021/12/03 01:57:12;;;;;;;29.25;13.63;;;;;;;;;;5109717;27;45048;-84
2021/12/03 01:59:39;;;;;;;32.80;15.45;;;;;;;;;;5109939;27;43934;-85
2021/12/03 02:02:06;;;;;;;28.75;13.98;;;;;;;;;;5109886;27;43680;-84
2021/12/03 02:04:33;;;;;;;32.92;14.63;;;;;;;;;;5100261;27;42978;-85
2021/12/03 02:06:59;;;;;;;30.60;13.65;;;;;;;;;;5089861;28;44957;-85
2021/12/03 02:09:26;;;;;;;49.05;19.15;;;;;;;;;;5088731;28;43847;-85
2021/12/03 02:11:54;;;;;;;29.10;13.30;;;;;;;;;;5089023;28;43742;-85
2021/12/03 02:14:21;;;;;;;28.23;15.13;;;;;;;;;;5092373;28;45306;-85
2021/12/03 02:16:47;;;;;;;30.23;14.27;;;;;;;;;;5093109;28;44717;-85
2021/12/03 02:19:14;;;;;;;32.60;14.52;;;;;;;;;;5092624;28;44954;-86
2021/12/03 02:21:41;;;;;;;31.80;14.52;;;;;;;;;;5093038;28;44730;-85
2021/12/03 02:24:08;;;;;;;38.05;14.82;;;;;;;;;;5092766;28;44956;-86
2021/12/03 02:26:34;;;;;;;29.45;15.13;;;;;;;;;;5092474;28;45016;-86
2021/12/03 02:29:01;;;;;;;41.22;15.05;;;;;;;;;;5092809;28;42081;-86
2021/12/03 02:31:28;;;;;;;31.15;13.57;;;;;;;;;;5091834;28;45060;-87
2021/12/03 02:33:55;;;;;;;36.88;13.82;;;;;;;;;;5092661;28;44938;-87
2021/12/03 02:36:21;;;;;;;42.20;15.70;;;;;;;;;;5092387;28;43699;-86
2021/12/03 02:38:48;;;;;;;30.40;12.43;;;;;;;;;;5091794;28;42702;-88
2021/12/03 02:41:15;;;;;;;25.77;13.35;;;;;;;;;;5093757;28;44932;-88
2021/12/03 02:43:42;;;;;;;24.15;12.38;;;;;;;;;;5112032;28;44880;-88
2021/12/03 02:46:10;;;;;;;21.15;11.80;;;;;;;;;;5113973;27;20565;-88
2021/12/03 02:48:37;;;;;;;43.22;17.35;;;;;;;;;;5112671;27;43728;-88
2021/12/03 02:51:05;;;;;;;31.63;13.25;;;;;;;;;;5113066;27;44883;-88
2021/12/03 02:53:32;;;;;;;33.13;12.15;;;;;;;;;;5111843;27;43479;-88
2021/12/03 02:55:58;;;;;;;24.75;12.43;;;;;;;;;;5112844;27;44748;-88
2021/12/03 02:58:25;;;;;;;30.48;12.20;;;;;;;;;;5112306;27;43952;-87
2021/12/03 03:00:52;;;;;;;29.00;12.40;;;;;;;;;;5112043;27;44948;-88
2021/12/03 03:03:19;;;;;;;21.70;11.40;;;;;;;;;;5112714;27;43791;-87
2021/12/03 03:05:52;;;;;;;34.53;12.75;;;;;;;;;;5112587;27;43216;-88
2021/12/03 03:08:18;;;;;;;27.90;10.20;;;;;;;;;;5112003;27;44783;-88
2021/12/03 03:10:46;;;;;;;20.15;9.57;;;;;;;;;;5112599;27;45039;-89
2021/12/03 03:13:12;;;;;;;32.05;11.00;;;;;;;;;;5112626;27;44563;-89
2021/12/03 03:15:39;;;;;;;27.63;11.10;;;;;;;;;;5111759;27;44776;-88
2021/12/03 03:18:14;;;;;;;24.38;10.27;;;;;;;;;;5112627;27;44929;-88
2021/12/03 03:20:41;;;;;;;31.77;11.68;;;;;;;;;;5112042;27;45212;-88
2021/12/03 03:23:08;;;;;;;18.83;9.47;;;;;;;;;;5111922;27;43757;-89
2021/12/03 03:25:35;;;;;;;23.25;10.52;;;;;;;;;;5112117;27;44168;-88
2021/12/03 03:28:02;;;;;;;32.95;9.70;;;;;;;;;;5111830;27;42738;-88
2021/12/03 03:30:29;;;;;;;24.77;10.80;;;;;;;;;;5112388;27;43963;-88
2021/12/03 03:32:56;;;;;;;28.45;11.43;;;;;;;;;;5112123;27;42864;-88
2021/12/03 03:35:23;;;;;;;25.20;12.20;;;;;;;;;;5111822;27;42689;-88
2021/12/03 03:37:49;;;;;;;31.42;12.77;;;;;;;;;;5111967;27;44899;-87
2021/12/03 03:40:16;;;;;;;26.08;12.00;;;;;;;;;;5112222;27;42891;-88
2021/12/03 03:42:43;;;;;;;29.45;13.50;;;;;;;;;;5111673;27;43711;-89
2021/12/03 03:45:12;;;;;;;31.30;14.73;;;;;;;;;;5112194;27;44867;-88
2021/12/03 03:47:39;;;;;;;30.77;14.85;;;;;;;;;;5111830;27;44964;-88
2021/12/03 03:50:07;;;;;;;33.05;16.38;;;;;;;;;;5111590;27;44179;-89
2021/12/03 03:52:35;;;;;;;57.42;19.63;;;;;;;;;;5111997;27;44913;-88
2021/12/03 03:55:02;;;;;;;;;;;;;;;;;;5113299;27;44930;-87
2021/12/03 03:57:28;;;;;;;51.20;19.02;;;;;;;;;;5111441;27;43028;-88
2021/12/03 03:59:55;;;;;;;50.10;20.02;;;;;;;;;;5112142;27;43409;-88
2021/12/03 04:02:22;;;;;;;43.95;17.38;;;;;;;;;;5111308;27;44835;-88
2021/12/03 04:04:49;;;;;;;28.45;16.10;;;;;;;;;;5099311;27;43999;-88
2021/12/03 04:07:16;;;;;;;46.85;18.00;;;;;;;;;;5091168;28;42894;-88
2021/12/03 04:09:42;;;;;;;39.88;17.75;;;;;;;;;;5091323;28;43892;-89
2021/12/03 04:12:09;;;;;;;37.67;17.60;;;;;;;;;;5089770;28;45277;-89
2021/12/03 04:14:36;;;;;;;42.13;17.88;;;;;;;;;;5091525;28;43034;-88
2021/12/03 04:17:03;;;;;;;35.95;16.63;;;;;;;;;;5090860;28;45025;-88
2021/12/03 04:19:29;;;;;;;47.78;18.73;;;;;;;;;;5090866;28;43932;-88
2021/12/03 04:21:56;;;;;;;44.70;18.10;;;;;;;;;;5090694;28;43717;-88
2021/12/03 04:24:23;;;;;;;36.33;17.13;;;;;;;;;;5090446;28;43881;-88
2021/12/03 04:26:50;;;;;;;39.65;17.67;;;;;;;;;;5091261;28;44106;-88
2021/12/03 04:29:17;;;;;;;43.03;18.05;;;;;;;;;;5091345;28;44831;-88
2021/12/03 04:31:43;;;;;;;40.20;17.05;;;;;;;;;;5090177;28;44889;-88
2021/12/03 04:34:10;;;;;;;34.47;15.85;;;;;;;;;;5090914;28;44728;-88
2021/12/03 04:36:39;;;;;;;37.42;16.23;;;;;;;;;;5089235;28;43930;-88
2021/12/03 04:39:06;;;;;;;29.90;16.08;;;;;;;;;;5090054;28;43927;-88
2021/12/03 04:41:33;;;;;;;43.58;17.35;;;;;;;;;;5091878;28;44475;-88
2021/12/03 04:43:59;;;;;;;46.30;19.48;;;;;;;;;;5110988;27;44970;-88
2021/12/03 04:46:26;;;;;;;55.70;21.55;;;;;;;;;;5110001;28;42860;-88
2021/12/03 04:48:53;;;;;;;40.30;16.90;;;;;;;;;;5111390;27;45057;-89
2021/12/03 04:51:19;;;;;;;37.90;17.20;;;;;;;;;;5111304;27;44991;-89
2021/12/03 04:53:46;;;;;;;44.20;18.05;;;;;;;;;;5110470;27;44721;-88
2021/12/03 04:56:13;;;;;;;39.05;19.38;;;;;;;;;;5110787;28;43602;-88
2021/12/03 04:58:39;;;;;;;49.33;20.08;;;;;;;;;;5110923;27;44939;-88
2021/12/03 05:01:06;;;;;;;72.50;26.00;;;;;;;;;;5109469;28;43815;-88
2021/12/03 05:03:33;;;;;;;68.32;24.40;;;;;;;;;;5109933;27;42900;-89
2021/12/03 05:06:02;;;;;;;60.97;24.92;;;;;;;;;;5090569;28;42958;-89
2021/12/03 05:08:30;;;;;;;53.00;22.92;;;;;;;;;;5089359;28;43875;-89
2021/12/03 05:10:57;;;;;;;65.18;27.05;;;;;;;;;;5090493;28;44919;-89
2021/12/03 05:13:26;;;;;;;69.05;28.98;;;;;;;;;;5089657;28;44312;-90
2021/12/03 05:15:52;;;;;;;71.53;27.38;;;;;;;;;;5090697;28;43949;-89
2021/12/03 05:18:20;;;;;;;55.95;25.13;;;;;;;;;;5090438;28;43875;-89
2021/12/03 05:20:48;;;;;;;69.50;28.98;;;;;;;;;;5089605;28;43719;-90
2021/12/03 05:23:16;;;;;;;51.97;23.60;;;;;;;;;;5090509;28;44980;-90
2021/12/03 05:25:43;;;;;;;63.15;26.08;;;;;;;;;;5089875;28;44913;-89
2021/12/03 05:28:10;;;;;;;66.35;26.48;;;;;;;;;;5089046;28;43602;-88
2021/12/03 05:30:37;;;;;;;60.95;26.52;;;;;;;;;;5089730;28;43782;-88
2021/12/03 05:33:04;;;;;;;60.13;26.45;;;;;;;;;;5088839;28;43946;-87
2021/12/03 05:35:31;;;;;;;55.22;25.13;;;;;;;;;;5087596;28;44775;-87
2021/12/03 05:37:58;;;;;;;57.75;26.02;;;;;;;;;;5087934;28;44928;-87
2021/12/03 05:40:25;;;;;;;63.33;25.40;;;;;;;;;;5088033;28;43883;-88
2021/12/03 05:42:52;;;;;;;57.20;26.67;;;;;;;;;;5100419;28;43914;-87
2021/12/03 05:45:21;;;;;;;63.05;25.98;;;;;;;;;;5110174;28;44839;-88
2021/12/03 05:47:47;;;;;;;;;;;;;;;;;;5113876;27;43743;-88
2021/12/03 05:50:14;;;;;;;62.78;24.85;;;;;;;;;;5112820;27;45963;-88
2021/12/03 05:52:42;;;;;;;48.72;25.05;;;;;;;;;;5113529;27;42602;-87
2021/12/03 05:55:09;;;;;;;56.08;24.90;;;;;;;;;;5114486;27;44777;-87
2021/12/03 05:57:36;;;;;;;71.38;27.15;;;;;;;;;;5113136;27;43865;-87
2021/12/03 06:00:04;;;;;;;73.18;28.90;;;;;;;;;;5114065;27;44036;-87
2021/12/03 06:02:31;;;;;;;68.10;27.15;;;;;;;;;;5113024;27;44951;-87
2021/12/03 06:04:58;;;;;;;64.95;27.23;;;;;;;;;;5100407;27;42695;-87
2021/12/03 06:07:25;;;;;;;58.13;26.52;;;;;;;;;;5092884;28;44908;-88
2021/12/03 06:09:51;;;;;;;76.70;28.23;;;;;;;;;;5092393;28;45012;-87
2021/12/03 06:12:18;;;;;;;65.22;24.88;;;;;;;;;;5092967;28;44945;-88
2021/12/03 06:14:45;;;;;;;61.80;24.25;;;;;;;;;;5092888;28;43374;-87
2021/12/03 06:17:13;;;;;;;59.38;24.55;;;;;;;;;;5092689;28;42864;-89
2021/12/03 06:19:40;;;;;;;52.03;24.42;;;;;;;;;;5092916;28;45141;-88
2021/12/03 06:22:07;;;;;;;75.25;27.08;;;;;;;;;;5093268;28;45178;-88
2021/12/03 06:24:36;;;;;;;60.28;25.25;;;;;;;;;;5093691;28;43885;-88
2021/12/03 06:27:03;;;;;;;52.47;25.25;;;;;;;;;;5112685;27;20391;-90
2021/12/03 06:29:29;;;;;;;55.80;25.35;;;;;;;;;;5112499;27;43746;-88
2021/12/03 06:31:56;;;;;;;56.33;23.80;;;;;;;;;;5111592;27;42960;-89
2021/12/03 06:34:23;;;;;;;54.55;23.48;;;;;;;;;;5112847;27;42798;-88
2021/12/03 06:36:49;;;;;;;58.47;25.02;;;;;;;;;;5111290;27;45038;-88
2021/12/03 06:39:16;;;;;;;61.33;24.88;;;;;;;;;;5111007;27;44908;-88
2021/12/03 06:41:43;;;;;;;61.17;24.40;;;;;;;;;;5112692;27;42915;-88
2021/12/03 06:44:10;;;;;;;46.70;22.70;;;;;;;;;;5113198;27;42900;-87
2021/12/03 06:46:36;;;;;;;45.92;23.27;;;;;;;;;;5111984;27;43750;-88
2021/12/03 06:49:03;;;;;;;61.95;25.17;;;;;;;;;;5113167;28;45357;-88
2021/12/03 06:51:30;;;;;;;55.20;22.85;;;;;;;;;;5112887;27;42927;-86
2021/12/03 06:54:03;;;;;;;61.50;23.05;;;;;;;;;;5112434;27;43674;-87
2021/12/03 06:56:43;;;;;;;55.63;20.75;;;;;;;;;;5112657;27;42917;-87
2021/12/03 06:59:11;;;;;;;47.72;21.83;;;;;;;;;;5111737;27;43909;-88
2021/12/03 07:01:37;;;;;;;59.33;22.63;;;;;;;;;;5113054;27;43814;-85
2021/12/03 07:04:04;;;;;;;69.18;24.85;;;;;;;;;;5106517;27;42951;-83
2021/12/03 07:06:31;;;;;;;49.38;20.88;;;;;;;;;;5091903;28;44713;-88
2021/12/03 07:08:58;;;;;;;49.25;18.83;;;;;;;;;;5092541;28;43927;-88
2021/12/03 07:11:25;;;;;;;55.42;19.50;;;;;;;;;;5091981;28;44938;-87
2021/12/03 07:13:51;;;;;;;46.35;18.15;;;;;;;;;;5091775;28;41680;-88
2021/12/03 07:16:18;;;;;;;54.58;21.30;;;;;;;;;;5092647;28;41705;-88
2021/12/03 07:18:45;;;;;;;45.05;17.50;;;;;;;;;;5092379;28;45072;-88
2021/12/03 07:21:12;;;;;;;54.58;19.17;;;;;;;;;;5091138;28;44843;-88
2021/12/03 07:23:39;;;;;;;53.88;18.13;;;;;;;;;;5107903;28;44896;-88
2021/12/03 07:26:06;;;;;;;54.72;17.63;;;;;;;;;;5112225;27;41832;-88
2021/12/03 07:28:33;;;;;;;53.47;17.95;;;;;;;;;;5101336;27;43861;-88
2021/12/03 07:31:00;;;;;;;54.17;16.50;;;;;;;;;;5091772;28;44064;-87
2021/12/03 07:33:29;;;;;;;50.00;15.70;;;;;;;;;;5090999;28;44813;-87
2021/12/03 07:35:57;;;;;;;56.78;16.92;;;;;;;;;;5090594;28;44987;-88
2021/12/03 07:38:23;;;;;;;44.28;15.40;;;;;;;;;;5097981;28;45015;-88
2021/12/03 07:40:50;;;;;;;48.17;16.92;;;;;;;;;;5100712;28;44710;-92
2021/12/03 07:43:17;;;;;;;35.67;14.52;;;;;;;;;;5092973;28;45101;-87
2021/12/03 07:45:45;;;;;;;54.60;16.15;;;;;;;;;;5089956;28;35415;-86
2021/12/03 07:48:12;;;;;;;43.47;14.38;;;;;;;;;;5090309;28;43942;-87
2021/12/03 07:50:40;;;;;;;38.58;12.63;;;;;;;;;;5090779;28;43825;-87
2021/12/03 07:53:08;;;;;;;42.28;13.27;;;;;;;;;;5090157;28;44750;-86
2021/12/03 07:55:35;;;;;;;45.25;12.07;;;;;;;;;;5090526;28;43902;-86
2021/12/03 07:58:04;;;;;;;30.25;10.57;;;;;;;;;;5090471;28;42899;-86
2021/12/03 08:00:30;;;;;;;33.88;12.00;;;;;;;;;;5090915;28;43313;-86
2021/12/03 08:03:14;;;;;;;36.05;10.43;;;;;;;;;;5090091;28;45229;-85
2021/12/03 08:05:41;;;;;;;32.35;10.82;;;;;;;;;;5109873;28;45057;-80
2021/12/03 08:08:07;;;;;;;28.33;11.10;;;;;;;;;;5108724;27;43990;-87
2021/12/03 08:10:35;;;;;;;29.67;9.05;;;;;;;;;;5107670;27;44884;-87
2021/12/03 08:13:02;;;;;;;34.35;11.38;;;;;;;;;;5110726;28;43710;-87
2021/12/03 08:15:30;;;;;;;21.88;8.80;;;;;;;;;;5111438;27;44365;-87
2021/12/03 08:17:56;;;;;;;30.23;10.07;;;;;;;;;;5110420;27;43929;-86
2021/12/03 08:20:23;;;;;;;24.60;9.45;;;;;;;;;;5111571;27;43667;-89
2021/12/03 08:22:50;;;;;;;27.65;9.73;;;;;;;;;;5111360;28;45336;-89
2021/12/03 08:25:17;;;;;;;26.45;9.30;;;;;;;;;;5110655;28;42775;-88
2021/12/03 08:27:44;;;;;;;25.63;8.32;;;;;;;;;;5111455;28;42694;-88
2021/12/03 08:30:13;;;;;;;19.05;7.93;;;;;;;;;;5110954;27;44965;-80
2021/12/03 08:32:42;;;;;;;21.60;7.53;;;;;;;;;;5111082;27;45115;-89
2021/12/03 08:35:09;;;;;;;25.90;7.70;;;;;;;;;;5111303;27;44978;-82
2021/12/03 08:37:37;;;;;;;17.10;7.68;;;;;;;;;;5060683;27;44945;-88
2021/12/03 08:40:05;;;;;;;17.42;6.88;;;;;;;;;;5111627;27;44868;-88
2021/12/03 08:42:32;;;;;;;23.75;7.70;;;;;;;;;;5110177;27;45840;-88
2021/12/03 08:44:59;;;;;;;24.45;7.85;;;;;;;;;;5110561;27;44965;-87
2021/12/03 08:47:26;;;;;;;22.65;7.25;;;;;;;;;;5110748;27;44696;-87
2021/12/03 08:49:55;;;;;;;26.30;9.40;;;;;;;;;;5110095;28;43947;-87
2021/12/03 08:52:46;;;;;;;29.08;8.75;;;;;;;;;;5107986;27;44736;-87
2021/12/03 08:55:09;;;;;;;31.02;9.07;;;;;;;;;;5107228;28;42943;-87
2021/12/03 08:57:36;;;;;;;25.13;8.15;;;;;;;;;;5108707;28;42939;-86
2021/12/03 09:00:13;;;;;;;32.80;7.13;;;;;;;;;;5108881;27;44801;-87
2021/12/03 09:02:41;;;;;;;29.67;8.20;;;;;;;;;;5108369;27;44934;-87
2021/12/03 09:05:08;;;;;;;36.70;8.75;;;;;;;;;;5106549;28;44883;-87
2021/12/03 09:07:35;;;;;;;27.10;8.13;;;;;;;;;;5107728;27;45036;-88
2021/12/03 09:10:04;;;;;;;33.83;8.52;;;;;;;;;;5110182;27;44894;-88
2021/12/03 09:12:31;;;;;;;28.77;7.80;;;;;;;;;;5110082;27;45026;-88
2021/12/03 09:15:01;;;;;;;27.88;8.60;;;;;;;;;;5110614;27;45021;-88
2021/12/03 09:17:36;;;;;;;28.05;8.27;;;;;;;;;;5110459;27;43872;-90
2021/12/03 09:22:45;;;;;;;42.53;8.90;;;;;;;;;;5105647;28;43164;-88
2021/12/03 09:25:15;;;;;;;31.00;7.20;;;;;;;;;;5110088;27;43813;-88
2021/12/03 09:27:42;;;;;;;39.85;8.15;;;;;;;;;;5108990;27;43691;-89
2021/12/03 09:30:10;;;;;;;39.13;8.50;;;;;;;;;;5110227;27;43119;-88
2021/12/03 09:32:37;;;;;;;37.08;8.43;;;;;;;;;;5107913;27;43837;-88
2021/12/03 09:35:04;;;;;;;27.95;7.60;;;;;;;;;;5102746;27;43744;-87
2021/12/03 09:37:30;;;;;;;27.63;6.93;;;;;;;;;;5109099;27;44985;-88
2021/12/03 09:40:03;;;;;;;25.88;7.53;;;;;;;;;;5106207;27;44719;-88
2021/12/03 09:42:31;;;;;;;26.33;7.20;;;;;;;;;;5096695;27;43977;-88
2021/12/03 09:44:58;;;;;;;24.47;7.03;;;;;;;;;;5091491;28;43817;-88
2021/12/03 09:47:24;;;;;;;19.88;5.55;;;;;;;;;;5108079;27;42650;-88
2021/12/03 09:49:55;;;;;;;19.13;5.53;;;;;;;;;;5108183;27;41844;-83
2021/12/03 09:52:32;;;;;;;18.02;5.15;;;;;;;;;;5107654;27;44893;-86
2021/12/03 09:55:02;;;;;;;20.98;4.70;;;;;;;;;;5108441;27;42706;-87
2021/12/03 09:57:35;;;;;;;28.23;4.55;;;;;;;;;;5102262;27;43424;-87
2021/12/03 10:00:11;;;;;;;15.63;4.05;;;;;;;;;;5088426;28;43545;-87
2021/12/03 10:13:22;;;;;;;12.77;3.60;;;;;;;;;;5106897;27;43970;-85
2021/12/03 10:15:59;;;;;;;10.75;3.60;;;;;;;;;;5106698;27;44718;-86
2021/12/03 10:18:31;;;;;;;13.05;3.70;;;;;;;;;;5108268;27;44985;-85
2021/12/03 10:24:21;;;;;;;17.70;3.92;;;;;;;;;;5085626;28;45827;-87
2021/12/03 10:27:06;;;;;;;9.15;3.00;;;;;;;;;;5086944;28;44943;-86
2021/12/03 10:29:33;;;;;;;16.50;4.00;;;;;;;;;;5086982;28;43814;-86
2021/12/03 10:37:53;;;;;;;16.98;4.43;;;;;;;;;;5110837;27;43790;-88
2021/12/03 10:46:17;;;;;;;14.00;3.75;;;;;;;;;;5090689;28;44160;-88
2021/12/03 10:51:49;;;;;;;13.90;3.80;;;;;;;;;;5078406;28;45171;-88
2021/12/03 11:02:27;;;;;;;15.80;4.60;;;;;;;;;;5090907;28;42926;-88
2021/12/03 11:05:53;;;;;;;15.90;4.25;;;;;;;;;;5097456;28;45045;-86
2021/12/03 11:13:25;;;;;;;18.02;4.88;;;;;;;;;;5089493;28;43197;-88
2021/12/03 11:49:06;;;;;;;11.18;4.10;;;;;;;;;;5108840;27;42875;-88
2021/12/03 11:51:53;;;;;;;16.58;4.38;;;;;;;;;;5110739;27;44696;-89
2021/12/03 11:55:30;;;;;;;15.75;4.35;;;;;;;;;;5110658;27;43176;-84
2021/12/03 12:18:28;;;;;;;15.73;4.75;;;;;;;;;;5109122;27;43855;-85
2021/12/03 12:23:57;;;;;;;12.55;4.28;;;;;;;;;;5109207;27;42839;-86
2021/12/03 13:11:07;;;;;;;7.43;2.75;;;;;;;;;;5091502;28;46214;-84
2021/12/03 13:13:45;;;;;;;9.52;3.30;;;;;;;;;;5108507;27;45351;-80
2021/12/03 13:27:19;;;;;;;6.57;3.40;;;;;;;;;;5107966;27;41642;-83
2021/12/03 13:41:45;;;;;;;10.88;3.45;;;;;;;;;;5108301;27;44923;-84
2021/12/03 13:56:04;;;;;;;8.60;3.65;;;;;;;;;;5107860;28;42855;-83
2021/12/03 14:46:07;;;;;;;7.05;4.47;;;;;;;;;;5111483;27;43993;-87
2021/12/03 14:51:23;;;;;;;10.95;5.07;;;;;;;;;;5111135;27;44912;-84
2021/12/03 14:55:06;;;;;;;11.40;5.38;;;;;;;;;;5111901;27;42829;-84
2021/12/03 15:00:19;;;;;;;12.45;6.22;;;;;;;;;;5111061;27;43242;-84
2021/12/03 15:08:05;;;;;;;11.27;7.22;;;;;;;;;;5089717;28;42960;-87
2021/12/03 15:18:56;;;;;;;9.82;7.57;;;;;;;;;;5110079;27;44748;-87
2021/12/03 15:21:46;;;;;;;11.48;7.13;;;;;;;;;;5110039;27;43544;-88
2021/12/03 15:27:07;;;;;;;14.65;8.27;;;;;;;;;;5108549;27;45129;-87
2021/12/03 15:32:38;;;;;;;13.27;9.02;;;;;;;;;;5107250;27;42970;-86
2021/12/03 15:35:14;;;;;;;15.88;9.85;;;;;;;;;;5090431;28;43997;-86
2021/12/03 15:40:56;;;;;;;13.15;10.18;;;;;;;;;;5109503;27;43552;-86
2021/12/03 15:52:25;;;;;;;10.95;9.57;;;;;;;;;;5088972;28;44918;-86
2021/12/03 15:55:07;;;;;;;13.65;11.30;;;;;;;;;;5088090;28;43077;-86
2021/12/03 15:57:45;;;;;;;13.05;9.00;;;;;;;;;;5088760;28;44608;-85
2021/12/03 16:08:17;;;;;;;15.98;13.38;;;;;;;;;;5088003;28;44674;-85
2021/12/03 16:11:08;;;;;;;14.27;11.32;;;;;;;;;;5088772;28;45233;-85
2021/12/03 16:16:27;;;;;;;13.50;10.77;;;;;;;;;;5088343;28;45059;-86
2021/12/03 16:27:05;;;;;;;16.27;12.55;;;;;;;;;;5110061;27;41938;-85
2021/12/03 16:46:27;;;;;;;14.32;12.50;;;;;;;;;;5110116;27;42934;-88
2021/12/03 16:51:47;;;;;;;14.90;12.80;;;;;;;;;;5106240;28;42907;-88
2021/12/03 16:54:20;;;;;;;18.05;14.52;;;;;;;;;;5106843;28;44656;-88
2021/12/03 16:56:50;;;;;;;15.93;14.05;;;;;;;;;;5108416;27;44928;-88
2021/12/03 16:59:17;;;;;;;15.43;13.25;;;;;;;;;;5108250;27;43854;-88
2021/12/03 17:10:18;;;;;;;19.83;15.60;;;;;;;;;;5106623;28;43901;-88
2021/12/03 17:12:51;;;;;;;19.90;14.75;;;;;;;;;;5107268;28;42995;-88
2021/12/03 17:18:22;;;;;;;19.48;15.55;;;;;;;;;;5105373;28;43915;-88
2021/12/03 17:21:32;;;;;;;19.92;17.13;;;;;;;;;;5106650;28;44943;-88
2021/12/03 17:32:24;;;;;;;19.77;15.80;;;;;;;;;;5107071;27;44044;-88
2021/12/03 17:45:55;;;;;;;18.60;16.00;;;;;;;;;;5111061;28;43674;-83
2021/12/03 17:51:24;;;;;;;16.65;14.45;;;;;;;;;;5113438;27;44933;-90
2021/12/03 17:54:03;;;;;;;21.77;15.77;;;;;;;;;;5112387;27;46216;-86
2021/12/03 17:56:36;;;;;;;18.38;15.55;;;;;;;;;;5113413;27;46287;-88
2021/12/03 18:01:46;;;;;;;19.85;16.50;;;;;;;;;;5112233;27;45924;-88
2021/12/03 18:04:23;;;;;;;17.95;15.70;;;;;;;;;;5113086;27;44284;-85
2021/12/03 18:07:03;;;;;;;17.63;15.57;;;;;;;;;;5111678;27;43691;-86
2021/12/03 18:09:45;;;;;;;16.63;14.70;;;;;;;;;;5109192;28;46213;-88
2021/12/03 18:15:24;;;;;;;17.02;15.15;;;;;;;;;;5109372;28;45717;-87
2021/12/03 18:54:17;;;;;;;19.13;15.30;;;;;;;;;;5109606;28;44130;-86
2021/12/03 18:56:17;;;;;;;20.10;17.40;;;;;;;;;;5096996;28;43920;-86
2021/12/03 18:58:44;;;;;;;19.15;17.15;;;;;;;;;;5111032;27;45690;-86
2021/12/03 19:01:12;;;;;;;21.30;15.57;;;;;;;;;;5108314;28;46416;-86
2021/12/03 19:06:25;;;;;;;21.63;17.58;;;;;;;;;;5109784;28;43114;-87
2021/12/03 19:09:00;;;;;;;18.65;15.18;;;;;;;;;;5107685;28;46579;-87
2021/12/03 19:11:32;;;;;;;18.17;16.08;;;;;;;;;;5110738;27;35463;-87
2021/12/03 19:13:59;;;;;;;19.88;16.33;;;;;;;;;;5110911;27;45324;-80
2021/12/03 19:16:26;;;;;;;21.75;17.55;;;;;;;;;;5110395;27;45244;-82
2021/12/03 19:18:56;;;;;;;23.80;17.65;;;;;;;;;;5109994;27;43092;-88
2021/12/03 19:21:25;;;;;;;23.48;17.92;;;;;;;;;;5111074;27;45944;-88
2021/12/03 19:23:57;;;;;;;22.02;17.02;;;;;;;;;;5108432;28;44465;-88
2021/12/03 19:26:24;;;;;;;29.80;19.27;;;;;;;;;;5110254;27;44540;-88
2021/12/03 19:28:53;;;;;;;20.03;16.57;;;;;;;;;;5108586;28;42943;-85
2021/12/03 19:31:23;;;;;;;22.65;17.50;;;;;;;;;;5110574;27;44021;-88
2021/12/03 19:33:49;;;;;;;24.52;19.02;;;;;;;;;;5108091;28;43905;-83
2021/12/03 19:36:21;;;;;;;25.85;19.77;;;;;;;;;;5111039;27;43886;-87
2021/12/03 19:38:52;;;;;;;22.50;17.40;;;;;;;;;;5107799;28;44613;-90
2021/12/03 19:41:34;;;;;;;28.15;19.50;;;;;;;;;;5110713;27;45967;-89
2021/12/03 19:44:04;;;;;;;28.08;19.48;;;;;;;;;;5111694;27;45016;-90
2021/12/03 19:46:34;;;;;;;21.92;17.15;;;;;;;;;;5107835;28;46244;-89
2021/12/03 19:51:29;;;;;;;25.02;18.05;;;;;;;;;;5110683;27;43949;-89
2021/12/03 19:53:59;;;;;;;22.30;17.85;;;;;;;;;;5110625;27;44901;-90
2021/12/03 19:56:27;;;;;;;21.63;17.05;;;;;;;;;;5111197;27;43805;-90
2021/12/03 19:58:56;;;;;;;22.10;17.40;;;;;;;;;;5110421;27;45799;-89
2021/12/03 20:01:23;;;;;;;21.58;16.73;;;;;;;;;;5109808;27;45287;-91
2021/12/03 20:03:53;;;;;;;22.15;17.65;;;;;;;;;;5105492;28;44008;-89
2021/12/03 20:06:22;;;;;;;23.60;17.88;;;;;;;;;;5109900;27;43931;-90
2021/12/03 20:08:57;;;;;;;25.75;18.02;;;;;;;;;;5108370;28;43954;-89
2021/12/03 20:11:29;;;;;;;25.25;18.17;;;;;;;;;;5109954;27;43854;-90
2021/12/03 20:14:00;;;;;;;22.48;17.45;;;;;;;;;;5108213;28;43973;-89
2021/12/03 20:16:36;;;;;;;22.15;17.05;;;;;;;;;;5109647;27;46092;-89
2021/12/03 20:19:15;;;;;;;23.10;17.17;;;;;;;;;;5110507;27;44608;-89
2021/12/03 20:21:54;;;;;;;22.70;17.63;;;;;;;;;;5108270;28;44242;-88
2021/12/03 20:24:28;;;;;;;23.85;17.55;;;;;;;;;;5108832;28;42881;-90
2021/12/03 20:27:02;;;;;;;30.00;21.13;;;;;;;;;;5107614;28;45715;-89
2021/12/03 20:29:37;;;;;;;23.15;17.65;;;;;;;;;;5109283;27;44071;-90
2021/12/03 20:32:21;;;;;;;30.45;21.80;;;;;;;;;;5109990;27;45009;-89
2021/12/03 20:37:18;;;;;;;26.63;19.20;;;;;;;;;;5109625;27;46090;-89
2021/12/03 20:39:47;;;;;;;22.52;17.83;;;;;;;;;;5110370;27;42244;-90
2021/12/03 20:42:24;;;;;;;22.33;16.48;;;;;;;;;;5104034;28;46056;-89
2021/12/03 20:50:35;;;;;;;26.20;19.95;;;;;;;;;;5109545;27;44551;-89
2021/12/03 20:53:19;;;;;;;20.10;16.25;;;;;;;;;;5109430;27;43559;-89
2021/12/03 21:09:42;;;;;;;21.35;16.85;;;;;;;;;;5107364;28;43662;-88
2021/12/03 21:12:18;;;;;;;19.52;16.25;;;;;;;;;;5107578;28;44516;-91
2021/12/03 21:15:02;;;;;;;21.05;17.23;;;;;;;;;;5106492;27;43893;-89
2021/12/03 21:20:34;;;;;;;18.75;16.08;;;;;;;;;;5050445;28;44406;-89
2021/12/03 21:23:05;;;;;;;18.23;15.35;;;;;;;;;;5109361;27;43515;-89
2021/12/03 21:25:36;;;;;;;22.05;17.70;;;;;;;;;;5106361;28;44716;-88